sensor_id;sensor_type;location;lat;lon;timestamp;P1;durP1;ratioP1;P2;durP2;ratioP2
26311;SDS011;14019;56.964;24.016;2023-12-07T00:01:04;33.42;;;13.32;;
26311;SDS011;14019;56.964;24.016;2023-12-07T00:03:51;31.23;;;13.18;;
26311;SDS011;14019;56.964;24.016;2023-12-07T00:06:38;28.58;;;11.73;;
26311;SDS011;14019;56.964;24.016;2023-12-07T00:09:24;32.13;;;11.75;;
26311;SDS011;14019;56.964;24.016;2023-12-07T00:12:10;29.63;;;12.13;;
26311;SDS011;14019;56.964;24.016;2023-12-07T00:14:56;31.23;;;12.27;;
26311;SDS011;14019;56.964;24.016;2023-12-07T00:17:42;35.35;;;14.10;;
26311;SDS011;14019;56.964;24.016;2023-12-07T00:20:29;33.72;;;12.38;;
26311;SDS011;14019;56.964;24.016;2023-12-07T00:23:15;30.65;;;12.70;;
26311;SDS011;14019;56.964;24.016;2023-12-07T00:26:02;32.88;;;13.10;;
26311;SDS011;14019;56.964;24.016;2023-12-07T00:28:49;32.60;;;12.93;;
26311;SDS011;14019;56.964;24.016;2023-12-07T00:31:36;36.75;;;13.93;;
26311;SDS011;14019;56.964;24.016;2023-12-07T00:34:23;31.23;;;13.32;;
26311;SDS011;14019;56.964;24.016;2023-12-07T00:37:09;37.58;;;14.40;;
26311;SDS011;14019;56.964;24.016;2023-12-07T00:39:55;35.10;;;13.82;;
26311;SDS011;14019;56.964;24.016;2023-12-07T00:42:41;35.80;;;13.20;;
26311;SDS011;14019;56.964;24.016;2023-12-07T00:45:28;38.53;;;14.65;;
26311;SDS011;14019;56.964;24.016;2023-12-07T00:48:14;40.17;;;15.27;;
26311;SDS011;14019;56.964;24.016;2023-12-07T00:51:01;40.15;;;15.60;;
26311;SDS011;14019;56.964;24.016;2023-12-07T00:53:47;41.30;;;14.88;;
26311;SDS011;14019;56.964;24.016;2023-12-07T00:56:33;44.25;;;16.52;;
26311;SDS011;14019;56.964;24.016;2023-12-07T00:59:20;44.97;;;16.90;;
26311;SDS011;14019;56.964;24.016;2023-12-07T01:02:06;45.88;;;18.27;;
26311;SDS011;14019;56.964;24.016;2023-12-07T01:04:52;48.97;;;18.30;;
26311;SDS011;14019;56.964;24.016;2023-12-07T01:07:39;49.85;;;19.67;;
26311;SDS011;14019;56.964;24.016;2023-12-07T01:10:25;49.33;;;19.13;;
26311;SDS011;14019;56.964;24.016;2023-12-07T01:13:12;44.30;;;16.38;;
26311;SDS011;14019;56.964;24.016;2023-12-07T01:15:58;43.55;;;16.55;;
26311;SDS011;14019;56.964;24.016;2023-12-07T01:18:44;44.40;;;17.73;;
26311;SDS011;14019;56.964;24.016;2023-12-07T01:21:30;45.78;;;17.27;;
26311;SDS011;14019;56.964;24.016;2023-12-07T01:24:16;43.63;;;17.00;;
26311;SDS011;14019;56.964;24.016;2023-12-07T01:27:02;47.33;;;16.83;;
26311;SDS011;14019;56.964;24.016;2023-12-07T01:29:49;41.50;;;16.50;;
26311;SDS011;14019;56.964;24.016;2023-12-07T01:32:35;45.85;;;17.40;;
26311;SDS011;14019;56.964;24.016;2023-12-07T01:35:21;43.58;;;15.95;;
26311;SDS011;14019;56.964;24.016;2023-12-07T01:38:07;45.28;;;17.33;;
26311;SDS011;14019;56.964;24.016;2023-12-07T01:40:54;43.08;;;17.00;;
26311;SDS011;14019;56.964;24.016;2023-12-07T01:43:46;43.92;;;18.45;;
26311;SDS011;14019;56.964;24.016;2023-12-07T01:46:33;40.78;;;15.85;;
26311;SDS011;14019;56.964;24.016;2023-12-07T01:49:19;39.78;;;15.23;;
26311;SDS011;14019;56.964;24.016;2023-12-07T01:52:06;41.85;;;16.10;;
26311;SDS011;14019;56.964;24.016;2023-12-07T01:54:53;41.25;;;14.90;;
26311;SDS011;14019;56.964;24.016;2023-12-07T01:57:40;40.83;;;15.27;;
26311;SDS011;14019;56.964;24.016;2023-12-07T02:00:27;41.60;;;15.88;;
26311;SDS011;14019;56.964;24.016;2023-12-07T02:03:14;37.72;;;14.95;;
26311;SDS011;14019;56.964;24.016;2023-12-07T02:06:03;37.45;;;14.90;;
26311;SDS011;14019;56.964;24.016;2023-12-07T02:08:49;38.45;;;14.35;;
26311;SDS011;14019;56.964;24.016;2023-12-07T02:11:36;38.92;;;15.20;;
26311;SDS011;14019;56.964;24.016;2023-12-07T02:14:22;42.10;;;16.00;;
26311;SDS011;14019;56.964;24.016;2023-12-07T02:17:19;39.50;;;15.85;;
26311;SDS011;14019;56.964;24.016;2023-12-07T02:20:17;44.20;;;17.17;;
26311;SDS011;14019;56.964;24.016;2023-12-07T02:23:07;43.92;;;16.13;;
26311;SDS011;14019;56.964;24.016;2023-12-07T02:29:37;44.92;;;17.00;;
26311;SDS011;14019;56.964;24.016;2023-12-07T02:32:24;44.20;;;16.23;;
26311;SDS011;14019;56.964;24.016;2023-12-07T02:35:10;44.95;;;17.48;;
26311;SDS011;14019;56.964;24.016;2023-12-07T02:37:58;47.28;;;17.27;;
26311;SDS011;14019;56.964;24.016;2023-12-07T02:40:44;40.45;;;15.50;;
26311;SDS011;14019;56.964;24.016;2023-12-07T02:43:33;42.00;;;16.05;;
26311;SDS011;14019;56.964;24.016;2023-12-07T02:46:20;45.95;;;17.55;;
26311;SDS011;14019;56.964;24.016;2023-12-07T02:49:06;47.97;;;17.63;;
26311;SDS011;14019;56.964;24.016;2023-12-07T02:51:52;43.92;;;17.25;;
26311;SDS011;14019;56.964;24.016;2023-12-07T02:54:38;43.40;;;16.65;;
26311;SDS011;14019;56.964;24.016;2023-12-07T02:57:25;42.88;;;17.58;;
26311;SDS011;14019;56.964;24.016;2023-12-07T03:00:11;44.30;;;17.05;;
26311;SDS011;14019;56.964;24.016;2023-12-07T03:02:59;41.28;;;15.95;;
26311;SDS011;14019;56.964;24.016;2023-12-07T03:05:45;44.75;;;16.35;;
26311;SDS011;14019;56.964;24.016;2023-12-07T03:08:31;46.13;;;17.25;;
26311;SDS011;14019;56.964;24.016;2023-12-07T03:11:17;40.70;;;16.20;;
26311;SDS011;14019;56.964;24.016;2023-12-07T03:14:03;41.20;;;15.90;;
26311;SDS011;14019;56.964;24.016;2023-12-07T03:16:50;42.92;;;16.65;;
26311;SDS011;14019;56.964;24.016;2023-12-07T03:19:39;43.03;;;16.05;;
26311;SDS011;14019;56.964;24.016;2023-12-07T03:22:26;43.10;;;18.05;;
26311;SDS011;14019;56.964;24.016;2023-12-07T03:25:13;47.45;;;18.38;;
26311;SDS011;14019;56.964;24.016;2023-12-07T03:28:00;48.22;;;17.85;;
26311;SDS011;14019;56.964;24.016;2023-12-07T03:30:46;51.67;;;18.52;;
26311;SDS011;14019;56.964;24.016;2023-12-07T03:33:49;36.53;;;13.15;;
26311;SDS011;14019;56.964;24.016;2023-12-07T03:36:35;39.00;;;15.57;;
26311;SDS011;14019;56.964;24.016;2023-12-07T03:39:21;42.50;;;15.85;;
26311;SDS011;14019;56.964;24.016;2023-12-07T03:42:08;40.28;;;15.98;;
26311;SDS011;14019;56.964;24.016;2023-12-07T03:45:14;36.63;;;14.07;;
26311;SDS011;14019;56.964;24.016;2023-12-07T03:48:01;36.80;;;14.40;;
26311;SDS011;14019;56.964;24.016;2023-12-07T03:50:47;36.00;;;15.32;;
26311;SDS011;14019;56.964;24.016;2023-12-07T03:53:33;40.60;;;14.07;;
26311;SDS011;14019;56.964;24.016;2023-12-07T03:56:26;33.58;;;13.15;;
26311;SDS011;14019;56.964;24.016;2023-12-07T03:59:13;35.40;;;14.77;;
26311;SDS011;14019;56.964;24.016;2023-12-07T04:02:00;30.67;;;13.48;;
26311;SDS011;14019;56.964;24.016;2023-12-07T04:04:46;35.38;;;14.70;;
26311;SDS011;14019;56.964;24.016;2023-12-07T04:07:32;34.50;;;14.00;;
26311;SDS011;14019;56.964;24.016;2023-12-07T04:10:19;35.47;;;13.57;;
26311;SDS011;14019;56.964;24.016;2023-12-07T04:13:05;37.88;;;15.00;;
26311;SDS011;14019;56.964;24.016;2023-12-07T04:15:52;38.83;;;13.63;;
26311;SDS011;14019;56.964;24.016;2023-12-07T04:18:38;38.22;;;14.90;;
26311;SDS011;14019;56.964;24.016;2023-12-07T04:21:25;37.15;;;14.38;;
26311;SDS011;14019;56.964;24.016;2023-12-07T04:24:10;37.38;;;14.43;;
26311;SDS011;14019;56.964;24.016;2023-12-07T04:26:57;36.13;;;13.32;;
26311;SDS011;14019;56.964;24.016;2023-12-07T04:29:43;36.42;;;13.68;;
26311;SDS011;14019;56.964;24.016;2023-12-07T04:32:29;36.15;;;13.25;;
26311;SDS011;14019;56.964;24.016;2023-12-07T04:36:31;35.55;;;14.23;;
26311;SDS011;14019;56.964;24.016;2023-12-07T04:39:17;32.70;;;12.68;;
26311;SDS011;14019;56.964;24.016;2023-12-07T04:42:04;34.95;;;13.88;;
26311;SDS011;14019;56.964;24.016;2023-12-07T04:44:50;36.30;;;13.43;;
26311;SDS011;14019;56.964;24.016;2023-12-07T04:47:36;34.90;;;13.55;;
26311;SDS011;14019;56.964;24.016;2023-12-07T04:50:22;33.38;;;13.55;;
26311;SDS011;14019;56.964;24.016;2023-12-07T04:53:08;36.42;;;13.23;;
26311;SDS011;14019;56.964;24.016;2023-12-07T04:55:55;35.85;;;13.82;;
26311;SDS011;14019;56.964;24.016;2023-12-07T04:58:42;33.50;;;13.65;;
26311;SDS011;14019;56.964;24.016;2023-12-07T05:01:28;36.15;;;14.02;;
26311;SDS011;14019;56.964;24.016;2023-12-07T05:04:14;36.55;;;14.07;;
26311;SDS011;14019;56.964;24.016;2023-12-07T05:07:00;35.38;;;13.98;;
26311;SDS011;14019;56.964;24.016;2023-12-07T05:09:48;37.67;;;14.20;;
26311;SDS011;14019;56.964;24.016;2023-12-07T05:12:36;38.75;;;14.75;;
26311;SDS011;14019;56.964;24.016;2023-12-07T05:15:22;40.22;;;16.25;;
26311;SDS011;14019;56.964;24.016;2023-12-07T05:18:10;43.10;;;15.95;;
26311;SDS011;14019;56.964;24.016;2023-12-07T05:20:56;39.22;;;15.23;;
26311;SDS011;14019;56.964;24.016;2023-12-07T05:23:42;38.97;;;16.13;;
26311;SDS011;14019;56.964;24.016;2023-12-07T05:26:28;39.47;;;14.93;;
26311;SDS011;14019;56.964;24.016;2023-12-07T05:29:17;37.60;;;14.73;;
26311;SDS011;14019;56.964;24.016;2023-12-07T05:32:04;35.22;;;14.52;;
26311;SDS011;14019;56.964;24.016;2023-12-07T05:34:51;39.25;;;15.20;;
26311;SDS011;14019;56.964;24.016;2023-12-07T05:37:37;44.33;;;15.93;;
26311;SDS011;14019;56.964;24.016;2023-12-07T05:40:23;45.58;;;15.27;;
26311;SDS011;14019;56.964;24.016;2023-12-07T05:43:11;42.13;;;15.52;;
26311;SDS011;14019;56.964;24.016;2023-12-07T05:46:01;43.60;;;17.20;;
26311;SDS011;14019;56.964;24.016;2023-12-07T05:48:48;44.17;;;17.38;;
26311;SDS011;14019;56.964;24.016;2023-12-07T05:51:36;50.53;;;17.17;;
26311;SDS011;14019;56.964;24.016;2023-12-07T05:54:22;45.78;;;16.77;;
26311;SDS011;14019;56.964;24.016;2023-12-07T05:57:08;42.58;;;16.58;;
26311;SDS011;14019;56.964;24.016;2023-12-07T06:00:45;45.35;;;16.10;;
26311;SDS011;14019;56.964;24.016;2023-12-07T06:03:36;50.03;;;16.83;;
26311;SDS011;14019;56.964;24.016;2023-12-07T06:06:32;45.15;;;18.05;;
26311;SDS011;14019;56.964;24.016;2023-12-07T06:09:18;46.55;;;17.38;;
26311;SDS011;14019;56.964;24.016;2023-12-07T06:12:05;43.08;;;15.95;;
26311;SDS011;14019;56.964;24.016;2023-12-07T06:14:51;48.13;;;17.73;;
26311;SDS011;14019;56.964;24.016;2023-12-07T06:17:38;51.72;;;17.40;;
26311;SDS011;14019;56.964;24.016;2023-12-07T06:20:25;47.63;;;17.00;;
26311;SDS011;14019;56.964;24.016;2023-12-07T06:23:43;46.55;;;19.20;;
26311;SDS011;14019;56.964;24.016;2023-12-07T06:26:35;49.00;;;17.92;;
26311;SDS011;14019;56.964;24.016;2023-12-07T06:29:24;54.72;;;19.08;;
26311;SDS011;14019;56.964;24.016;2023-12-07T06:32:16;45.63;;;18.38;;
26311;SDS011;14019;56.964;24.016;2023-12-07T06:35:03;51.25;;;20.73;;
26311;SDS011;14019;56.964;24.016;2023-12-07T06:37:49;50.80;;;17.58;;
26311;SDS011;14019;56.964;24.016;2023-12-07T06:41:16;52.15;;;19.08;;
26311;SDS011;14019;56.964;24.016;2023-12-07T06:44:02;48.97;;;17.75;;
26311;SDS011;14019;56.964;24.016;2023-12-07T06:46:50;50.80;;;18.60;;
26311;SDS011;14019;56.964;24.016;2023-12-07T06:50:10;50.03;;;18.17;;
26311;SDS011;14019;56.964;24.016;2023-12-07T06:52:57;49.20;;;17.67;;
26311;SDS011;14019;56.964;24.016;2023-12-07T06:55:43;53.97;;;18.92;;
26311;SDS011;14019;56.964;24.016;2023-12-07T06:58:31;51.58;;;18.77;;
26311;SDS011;14019;56.964;24.016;2023-12-07T07:01:17;50.63;;;19.70;;
26311;SDS011;14019;56.964;24.016;2023-12-07T07:04:04;47.35;;;18.38;;
26311;SDS011;14019;56.964;24.016;2023-12-07T07:06:50;47.15;;;17.15;;
26311;SDS011;14019;56.964;24.016;2023-12-07T07:09:37;48.17;;;18.08;;
26311;SDS011;14019;56.964;24.016;2023-12-07T07:12:23;40.63;;;17.02;;
26311;SDS011;14019;56.964;24.016;2023-12-07T07:15:09;44.90;;;17.52;;
26311;SDS011;14019;56.964;24.016;2023-12-07T07:17:56;50.75;;;17.30;;
26311;SDS011;14019;56.964;24.016;2023-12-07T07:20:42;49.75;;;18.23;;
26311;SDS011;14019;56.964;24.016;2023-12-07T07:23:30;46.88;;;17.83;;
26311;SDS011;14019;56.964;24.016;2023-12-07T07:26:19;42.95;;;16.83;;
26311;SDS011;14019;56.964;24.016;2023-12-07T07:29:06;45.08;;;17.65;;
26311;SDS011;14019;56.964;24.016;2023-12-07T07:31:53;45.20;;;16.65;;
26311;SDS011;14019;56.964;24.016;2023-12-07T07:34:41;44.72;;;16.40;;
26311;SDS011;14019;56.964;24.016;2023-12-07T07:37:28;47.60;;;16.58;;
26311;SDS011;14019;56.964;24.016;2023-12-07T07:40:14;48.70;;;16.98;;
26311;SDS011;14019;56.964;24.016;2023-12-07T07:43:00;43.72;;;16.33;;
26311;SDS011;14019;56.964;24.016;2023-12-07T07:45:50;46.53;;;16.50;;
26311;SDS011;14019;56.964;24.016;2023-12-07T07:48:36;46.88;;;16.15;;
26311;SDS011;14019;56.964;24.016;2023-12-07T07:51:45;38.38;;;14.63;;
26311;SDS011;14019;56.964;24.016;2023-12-07T07:54:33;44.17;;;15.90;;
26311;SDS011;14019;56.964;24.016;2023-12-07T07:57:19;42.38;;;15.77;;
26311;SDS011;14019;56.964;24.016;2023-12-07T08:00:05;42.55;;;16.17;;
26311;SDS011;14019;56.964;24.016;2023-12-07T08:02:54;45.60;;;16.80;;
26311;SDS011;14019;56.964;24.016;2023-12-07T08:06:12;42.80;;;15.73;;
26311;SDS011;14019;56.964;24.016;2023-12-07T08:08:58;43.55;;;16.40;;
26311;SDS011;14019;56.964;24.016;2023-12-07T08:11:44;42.70;;;16.13;;
26311;SDS011;14019;56.964;24.016;2023-12-07T08:14:30;43.03;;;16.52;;
26311;SDS011;14019;56.964;24.016;2023-12-07T08:17:16;45.53;;;16.67;;
26311;SDS011;14019;56.964;24.016;2023-12-07T08:20:05;44.10;;;17.23;;
26311;SDS011;14019;56.964;24.016;2023-12-07T08:22:51;47.33;;;16.70;;
26311;SDS011;14019;56.964;24.016;2023-12-07T08:25:41;42.58;;;16.58;;
26311;SDS011;14019;56.964;24.016;2023-12-07T08:28:28;42.03;;;14.93;;
26311;SDS011;14019;56.964;24.016;2023-12-07T08:31:14;44.50;;;16.38;;
26311;SDS011;14019;56.964;24.016;2023-12-07T08:34:02;42.17;;;15.52;;
26311;SDS011;14019;56.964;24.016;2023-12-07T08:40:34;40.60;;;15.85;;
26311;SDS011;14019;56.964;24.016;2023-12-07T08:43:21;52.90;;;16.67;;
26311;SDS011;14019;56.964;24.016;2023-12-07T08:46:10;38.30;;;16.17;;
26311;SDS011;14019;56.964;24.016;2023-12-07T08:48:56;42.20;;;15.50;;
26311;SDS011;14019;56.964;24.016;2023-12-07T08:52:19;45.60;;;15.80;;
26311;SDS011;14019;56.964;24.016;2023-12-07T08:55:39;41.85;;;16.27;;
26311;SDS011;14019;56.964;24.016;2023-12-07T08:58:26;38.85;;;15.57;;
26311;SDS011;14019;56.964;24.016;2023-12-07T09:01:12;44.13;;;16.65;;
26311;SDS011;14019;56.964;24.016;2023-12-07T09:04:21;46.63;;;17.63;;
26311;SDS011;14019;56.964;24.016;2023-12-07T09:07:08;46.70;;;17.10;;
26311;SDS011;14019;56.964;24.016;2023-12-07T09:09:56;47.95;;;17.55;;
26311;SDS011;14019;56.964;24.016;2023-12-07T09:12:42;51.63;;;17.52;;
26311;SDS011;14019;56.964;24.016;2023-12-07T09:15:29;46.15;;;17.58;;
26311;SDS011;14019;56.964;24.016;2023-12-07T09:18:23;45.97;;;16.38;;
26311;SDS011;14019;56.964;24.016;2023-12-07T09:22:07;47.90;;;17.17;;
26311;SDS011;14019;56.964;24.016;2023-12-07T09:24:54;46.78;;;18.00;;
26311;SDS011;14019;56.964;24.016;2023-12-07T09:27:42;48.00;;;16.25;;
26311;SDS011;14019;56.964;24.016;2023-12-07T09:33:39;39.63;;;16.00;;
26311;SDS011;14019;56.964;24.016;2023-12-07T09:36:35;41.90;;;16.05;;
26311;SDS011;14019;56.964;24.016;2023-12-07T09:39:22;40.42;;;15.43;;
26311;SDS011;14019;56.964;24.016;2023-12-07T09:42:20;38.70;;;14.85;;
26311;SDS011;14019;56.964;24.016;2023-12-07T09:45:07;41.65;;;15.85;;
26311;SDS011;14019;56.964;24.016;2023-12-07T09:48:04;43.97;;;15.27;;
26311;SDS011;14019;56.964;24.016;2023-12-07T09:54:03;41.70;;;14.70;;
26311;SDS011;14019;56.964;24.016;2023-12-07T09:56:50;38.25;;;15.07;;
26311;SDS011;14019;56.964;24.016;2023-12-07T09:59:39;38.80;;;14.68;;
26311;SDS011;14019;56.964;24.016;2023-12-07T10:02:26;37.95;;;15.15;;
26311;SDS011;14019;56.964;24.016;2023-12-07T10:05:13;39.35;;;14.82;;
26311;SDS011;14019;56.964;24.016;2023-12-07T10:08:01;38.90;;;15.23;;
26311;SDS011;14019;56.964;24.016;2023-12-07T10:11:10;42.63;;;15.25;;
26311;SDS011;14019;56.964;24.016;2023-12-07T10:14:00;33.25;;;13.85;;
26311;SDS011;14019;56.964;24.016;2023-12-07T10:16:53;40.65;;;15.35;;
26311;SDS011;14019;56.964;24.016;2023-12-07T10:19:41;42.53;;;14.98;;
26311;SDS011;14019;56.964;24.016;2023-12-07T10:22:27;39.13;;;13.65;;
26311;SDS011;14019;56.964;24.016;2023-12-07T10:25:14;34.45;;;14.00;;
26311;SDS011;14019;56.964;24.016;2023-12-07T10:28:00;37.35;;;15.00;;
26311;SDS011;14019;56.964;24.016;2023-12-07T10:30:49;38.13;;;13.98;;
26311;SDS011;14019;56.964;24.016;2023-12-07T10:33:36;35.35;;;14.55;;
26311;SDS011;14019;56.964;24.016;2023-12-07T10:36:23;37.40;;;14.70;;
26311;SDS011;14019;56.964;24.016;2023-12-07T10:39:09;34.67;;;13.93;;
26311;SDS011;14019;56.964;24.016;2023-12-07T10:42:06;37.72;;;14.27;;
26311;SDS011;14019;56.964;24.016;2023-12-07T10:44:55;37.33;;;14.65;;
26311;SDS011;14019;56.964;24.016;2023-12-07T10:47:43;36.08;;;15.00;;
26311;SDS011;14019;56.964;24.016;2023-12-07T10:50:31;30.67;;;12.85;;
26311;SDS011;14019;56.964;24.016;2023-12-07T10:53:21;37.72;;;14.77;;
26311;SDS011;14019;56.964;24.016;2023-12-07T10:56:16;36.85;;;14.38;;
26311;SDS011;14019;56.964;24.016;2023-12-07T10:59:08;33.83;;;14.10;;
26311;SDS011;14019;56.964;24.016;2023-12-07T11:02:14;44.38;;;15.73;;
26311;SDS011;14019;56.964;24.016;2023-12-07T11:05:05;40.20;;;14.65;;
26311;SDS011;14019;56.964;24.016;2023-12-07T11:11:06;38.40;;;15.68;;
26311;SDS011;14019;56.964;24.016;2023-12-07T11:16:45;36.45;;;14.35;;
26311;SDS011;14019;56.964;24.016;2023-12-07T11:22:20;35.78;;;13.77;;
26311;SDS011;14019;56.964;24.016;2023-12-07T11:25:10;37.97;;;14.32;;
26311;SDS011;14019;56.964;24.016;2023-12-07T11:28:00;35.38;;;14.38;;
26311;SDS011;14019;56.964;24.016;2023-12-07T11:30:47;38.08;;;14.65;;
26311;SDS011;14019;56.964;24.016;2023-12-07T11:33:37;37.38;;;14.68;;
26311;SDS011;14019;56.964;24.016;2023-12-07T11:36:25;35.00;;;13.93;;
26311;SDS011;14019;56.964;24.016;2023-12-07T11:39:16;36.72;;;13.45;;
26311;SDS011;14019;56.964;24.016;2023-12-07T11:42:16;37.78;;;14.20;;
26311;SDS011;14019;56.964;24.016;2023-12-07T11:45:03;31.10;;;12.90;;
26311;SDS011;14019;56.964;24.016;2023-12-07T11:48:05;35.05;;;14.25;;
26311;SDS011;14019;56.964;24.016;2023-12-07T11:50:54;40.85;;;14.15;;
26311;SDS011;14019;56.964;24.016;2023-12-07T11:53:44;34.88;;;15.10;;
26311;SDS011;14019;56.964;24.016;2023-12-07T11:56:34;34.97;;;14.65;;
26311;SDS011;14019;56.964;24.016;2023-12-07T11:59:22;37.63;;;14.60;;
26311;SDS011;14019;56.964;24.016;2023-12-07T12:02:18;39.72;;;14.98;;
26311;SDS011;14019;56.964;24.016;2023-12-07T12:05:04;36.53;;;13.32;;
26311;SDS011;14019;56.964;24.016;2023-12-07T12:07:51;35.05;;;13.50;;
26311;SDS011;14019;56.964;24.016;2023-12-07T12:10:38;31.85;;;13.15;;
26311;SDS011;14019;56.964;24.016;2023-12-07T12:16:15;32.28;;;12.93;;
26311;SDS011;14019;56.964;24.016;2023-12-07T12:19:03;30.52;;;12.82;;
26311;SDS011;14019;56.964;24.016;2023-12-07T12:21:49;34.15;;;12.57;;
26311;SDS011;14019;56.964;24.016;2023-12-07T12:24:36;34.13;;;13.73;;
26311;SDS011;14019;56.964;24.016;2023-12-07T12:27:25;29.98;;;12.25;;
26311;SDS011;14019;56.964;24.016;2023-12-07T12:30:14;32.13;;;12.93;;
26311;SDS011;14019;56.964;24.016;2023-12-07T12:33:02;37.00;;;13.10;;
26311;SDS011;14019;56.964;24.016;2023-12-07T12:36:01;31.63;;;12.38;;
26311;SDS011;14019;56.964;24.016;2023-12-07T12:38:49;34.65;;;12.93;;
26311;SDS011;14019;56.964;24.016;2023-12-07T12:41:38;32.38;;;13.13;;
26311;SDS011;14019;56.964;24.016;2023-12-07T12:44:25;34.13;;;13.15;;
26311;SDS011;14019;56.964;24.016;2023-12-07T12:47:21;30.13;;;12.43;;
26311;SDS011;14019;56.964;24.016;2023-12-07T12:50:07;34.83;;;13.25;;
26311;SDS011;14019;56.964;24.016;2023-12-07T12:52:54;31.85;;;12.70;;
26311;SDS011;14019;56.964;24.016;2023-12-07T12:55:41;31.42;;;13.05;;
26311;SDS011;14019;56.964;24.016;2023-12-07T12:58:27;32.95;;;12.80;;
26311;SDS011;14019;56.964;24.016;2023-12-07T13:01:18;31.20;;;12.40;;
26311;SDS011;14019;56.964;24.016;2023-12-07T13:04:06;31.60;;;12.23;;
26311;SDS011;14019;56.964;24.016;2023-12-07T13:06:53;30.20;;;11.57;;
26311;SDS011;14019;56.964;24.016;2023-12-07T13:09:39;29.25;;;12.20;;
26311;SDS011;14019;56.964;24.016;2023-12-07T13:12:26;32.35;;;12.73;;
26311;SDS011;14019;56.964;24.016;2023-12-07T13:15:13;29.35;;;11.40;;
26311;SDS011;14019;56.964;24.016;2023-12-07T13:18:00;31.77;;;12.23;;
26311;SDS011;14019;56.964;24.016;2023-12-07T13:20:51;34.42;;;13.02;;
26311;SDS011;14019;56.964;24.016;2023-12-07T13:23:40;31.08;;;12.68;;
26311;SDS011;14019;56.964;24.016;2023-12-07T13:26:28;34.30;;;12.18;;
26311;SDS011;14019;56.964;24.016;2023-12-07T13:29:14;29.85;;;11.98;;
26311;SDS011;14019;56.964;24.016;2023-12-07T13:32:13;31.30;;;12.00;;
26311;SDS011;14019;56.964;24.016;2023-12-07T13:34:59;28.52;;;11.23;;
26311;SDS011;14019;56.964;24.016;2023-12-07T13:37:46;29.92;;;12.55;;
26311;SDS011;14019;56.964;24.016;2023-12-07T13:40:34;33.22;;;11.85;;
26311;SDS011;14019;56.964;24.016;2023-12-07T13:43:22;32.13;;;13.15;;
26311;SDS011;14019;56.964;24.016;2023-12-07T13:46:09;27.50;;;11.68;;
26311;SDS011;14019;56.964;24.016;2023-12-07T13:48:56;30.65;;;12.18;;
26311;SDS011;14019;56.964;24.016;2023-12-07T13:51:43;29.35;;;11.82;;
26311;SDS011;14019;56.964;24.016;2023-12-07T13:54:31;32.00;;;12.95;;
26311;SDS011;14019;56.964;24.016;2023-12-07T13:57:37;29.65;;;12.32;;
26311;SDS011;14019;56.964;24.016;2023-12-07T14:00:23;28.85;;;11.98;;
26311;SDS011;14019;56.964;24.016;2023-12-07T14:03:09;34.50;;;12.95;;
26311;SDS011;14019;56.964;24.016;2023-12-07T14:05:56;27.88;;;11.52;;
26311;SDS011;14019;56.964;24.016;2023-12-07T14:08:43;34.33;;;12.70;;
26311;SDS011;14019;56.964;24.016;2023-12-07T14:11:30;33.38;;;12.07;;
26311;SDS011;14019;56.964;24.016;2023-12-07T14:14:16;30.15;;;11.88;;
26311;SDS011;14019;56.964;24.016;2023-12-07T14:17:03;29.45;;;11.90;;
26311;SDS011;14019;56.964;24.016;2023-12-07T14:19:56;30.98;;;11.88;;
26311;SDS011;14019;56.964;24.016;2023-12-07T14:23:02;30.40;;;12.35;;
26311;SDS011;14019;56.964;24.016;2023-12-07T14:25:52;31.63;;;12.68;;
26311;SDS011;14019;56.964;24.016;2023-12-07T14:28:48;27.67;;;11.40;;
26311;SDS011;14019;56.964;24.016;2023-12-07T14:31:34;29.52;;;11.85;;
26311;SDS011;14019;56.964;24.016;2023-12-07T14:34:22;31.17;;;11.98;;
26311;SDS011;14019;56.964;24.016;2023-12-07T14:37:19;27.42;;;11.27;;
26311;SDS011;14019;56.964;24.016;2023-12-07T14:40:06;26.95;;;11.13;;
26311;SDS011;14019;56.964;24.016;2023-12-07T14:42:53;29.08;;;11.95;;
26311;SDS011;14019;56.964;24.016;2023-12-07T14:45:39;31.20;;;12.13;;
26311;SDS011;14019;56.964;24.016;2023-12-07T14:48:26;31.17;;;12.30;;
26311;SDS011;14019;56.964;24.016;2023-12-07T14:51:17;29.85;;;11.85;;
26311;SDS011;14019;56.964;24.016;2023-12-07T14:54:03;30.48;;;12.88;;
26311;SDS011;14019;56.964;24.016;2023-12-07T14:56:49;29.65;;;12.02;;
26311;SDS011;14019;56.964;24.016;2023-12-07T14:59:35;32.97;;;12.35;;
26311;SDS011;14019;56.964;24.016;2023-12-07T15:02:21;28.20;;;11.70;;
26311;SDS011;14019;56.964;24.016;2023-12-07T15:05:08;28.60;;;11.75;;
26311;SDS011;14019;56.964;24.016;2023-12-07T15:07:55;28.08;;;11.30;;
26311;SDS011;14019;56.964;24.016;2023-12-07T15:10:42;27.85;;;11.60;;
26311;SDS011;14019;56.964;24.016;2023-12-07T15:13:28;28.45;;;11.30;;
26311;SDS011;14019;56.964;24.016;2023-12-07T15:16:15;22.63;;;10.30;;
26311;SDS011;14019;56.964;24.016;2023-12-07T15:19:01;29.65;;;11.27;;
26311;SDS011;14019;56.964;24.016;2023-12-07T15:21:49;25.83;;;10.57;;
26311;SDS011;14019;56.964;24.016;2023-12-07T15:24:38;25.45;;;10.25;;
26311;SDS011;14019;56.964;24.016;2023-12-07T15:27:25;24.23;;;10.50;;
26311;SDS011;14019;56.964;24.016;2023-12-07T15:30:11;23.00;;;9.38;;
26311;SDS011;14019;56.964;24.016;2023-12-07T15:32:58;25.33;;;9.57;;
26311;SDS011;14019;56.964;24.016;2023-12-07T15:35:44;23.95;;;9.40;;
26311;SDS011;14019;56.964;24.016;2023-12-07T15:38:30;21.75;;;9.27;;
26311;SDS011;14019;56.964;24.016;2023-12-07T15:41:17;23.75;;;9.40;;
26311;SDS011;14019;56.964;24.016;2023-12-07T15:44:03;22.25;;;9.07;;
26311;SDS011;14019;56.964;24.016;2023-12-07T15:46:49;24.73;;;8.77;;
26311;SDS011;14019;56.964;24.016;2023-12-07T15:49:36;22.50;;;9.43;;
26311;SDS011;14019;56.964;24.016;2023-12-07T15:52:22;23.88;;;9.02;;
26311;SDS011;14019;56.964;24.016;2023-12-07T15:55:09;26.73;;;10.90;;
26311;SDS011;14019;56.964;24.016;2023-12-07T15:57:55;25.42;;;9.52;;
26311;SDS011;14019;56.964;24.016;2023-12-07T16:00:43;25.38;;;9.65;;
26311;SDS011;14019;56.964;24.016;2023-12-07T16:03:30;25.33;;;10.23;;
26311;SDS011;14019;56.964;24.016;2023-12-07T16:06:19;28.75;;;10.13;;
26311;SDS011;14019;56.964;24.016;2023-12-07T16:09:06;27.83;;;10.63;;
26311;SDS011;14019;56.964;24.016;2023-12-07T16:11:53;26.85;;;10.63;;
26311;SDS011;14019;56.964;24.016;2023-12-07T16:14:39;25.15;;;10.68;;
26311;SDS011;14019;56.964;24.016;2023-12-07T16:17:26;26.58;;;11.00;;
26311;SDS011;14019;56.964;24.016;2023-12-07T16:20:13;26.02;;;10.00;;
26311;SDS011;14019;56.964;24.016;2023-12-07T16:23:01;22.52;;;9.52;;
26311;SDS011;14019;56.964;24.016;2023-12-07T16:25:47;23.00;;;9.95;;
26311;SDS011;14019;56.964;24.016;2023-12-07T16:28:34;22.23;;;9.23;;
26311;SDS011;14019;56.964;24.016;2023-12-07T16:31:21;26.55;;;10.00;;
26311;SDS011;14019;56.964;24.016;2023-12-07T16:34:07;25.30;;;10.63;;
26311;SDS011;14019;56.964;24.016;2023-12-07T16:36:54;28.33;;;10.35;;
26311;SDS011;14019;56.964;24.016;2023-12-07T16:39:40;26.60;;;10.35;;